sensor_id;sensor_type;location;lat;lon;timestamp;pressure;altitude;pressure_sealevel;temperature;humidity
62946;BME280;52164;52.212;-1.010;2022-10-31T00:01:36;100614.29;;;11.89;82.37
62946;BME280;52164;52.212;-1.010;2022-10-31T00:04:03;100617.34;;;11.90;82.46
62946;BME280;52164;52.212;-1.010;2022-10-31T00:06:29;100617.70;;;11.89;82.16
62946;BME280;52164;52.212;-1.010;2022-10-31T00:08:57;100618.41;;;11.87;82.36
62946;BME280;52164;52.212;-1.010;2022-10-31T00:11:23;100613.95;;;11.86;82.36
62946;BME280;52164;52.212;-1.010;2022-10-31T00:13:49;100612.52;;;11.86;82.47
62946;BME280;52164;52.212;-1.010;2022-10-31T00:16:21;100615.20;;;11.86;82.60
62946;BME280;52164;52.212;-1.010;2022-10-31T00:18:51;100616.45;;;11.85;82.69
62946;BME280;52164;52.212;-1.010;2022-10-31T00:21:17;100613.42;;;11.85;82.49
62946;BME280;52164;52.212;-1.010;2022-10-31T00:23:43;100612.70;;;11.86;82.61
62946;BME280;52164;52.212;-1.010;2022-10-31T00:26:09;100611.10;;;11.86;82.55
62946;BME280;52164;52.212;-1.010;2022-10-31T00:28:34;100614.48;;;11.86;82.78
62946;BME280;52164;52.212;-1.010;2022-10-31T00:31:01;100615.91;;;11.86;82.69
62946;BME280;52164;52.212;-1.010;2022-10-31T00:33:28;100617.70;;;11.88;82.68
62946;BME280;52164;52.212;-1.010;2022-10-31T00:35:53;100615.19;;;11.90;82.74
62946;BME280;52164;52.212;-1.010;2022-10-31T00:38:19;100615.00;;;11.90;82.67
62946;BME280;52164;52.212;-1.010;2022-10-31T00:40:45;100610.17;;;11.92;82.51
62946;BME280;52164;52.212;-1.010;2022-10-31T00:43:10;100616.27;;;11.93;82.56
62946;BME280;52164;52.212;-1.010;2022-10-31T00:45:35;100611.81;;;11.93;82.66
62946;BME280;52164;52.212;-1.010;2022-10-31T00:48:01;100611.27;;;11.94;82.54
62946;BME280;52164;52.212;-1.010;2022-10-31T00:50:26;100608.23;;;11.96;82.65
62946;BME280;52164;52.212;-1.010;2022-10-31T00:52:51;100606.42;;;11.98;82.69
62946;BME280;52164;52.212;-1.010;2022-10-31T00:55:17;100602.66;;;12.00;82.68
62946;BME280;52164;52.212;-1.010;2022-10-31T00:57:42;100606.23;;;12.02;82.43
62946;BME280;52164;52.212;-1.010;2022-10-31T01:00:08;100607.11;;;12.03;82.59
62946;BME280;52164;52.212;-1.010;2022-10-31T01:02:34;100607.64;;;12.05;82.61
62946;BME280;52164;52.212;-1.010;2022-10-31T01:05:00;100611.58;;;12.06;82.29
62946;BME280;52164;52.212;-1.010;2022-10-31T01:07:25;100608.73;;;12.07;82.42
62946;BME280;52164;52.212;-1.010;2022-10-31T01:09:50;100607.98;;;12.07;82.46
62946;BME280;52164;52.212;-1.010;2022-10-31T01:12:16;100603.35;;;12.06;82.62
62946;BME280;52164;52.212;-1.010;2022-10-31T01:14:44;100599.59;;;12.07;82.56
62946;BME280;52164;52.212;-1.010;2022-10-31T01:17:10;100600.13;;;12.08;82.82
62946;BME280;52164;52.212;-1.010;2022-10-31T01:19:36;100601.91;;;12.09;82.62
62946;BME280;52164;52.212;-1.010;2022-10-31T01:22:01;100606.20;;;12.10;82.58
62946;BME280;52164;52.212;-1.010;2022-10-31T01:24:26;100606.73;;;12.11;82.61
62946;BME280;52164;52.212;-1.010;2022-10-31T01:26:52;100608.33;;;12.12;82.74
62946;BME280;52164;52.212;-1.010;2022-10-31T01:29:17;100606.72;;;12.12;82.72
62946;BME280;52164;52.212;-1.010;2022-10-31T01:31:42;100612.25;;;12.14;82.80
62946;BME280;52164;52.212;-1.010;2022-10-31T01:34:13;100615.29;;;12.17;82.72
62946;BME280;52164;52.212;-1.010;2022-10-31T01:36:39;100620.82;;;12.19;82.84
62946;BME280;52164;52.212;-1.010;2022-10-31T01:39:09;100617.24;;;12.21;82.58
62946;BME280;52164;52.212;-1.010;2022-10-31T01:41:37;100610.25;;;12.22;82.63
62946;BME280;52164;52.212;-1.010;2022-10-31T01:47:13;100610.77;;;12.26;82.53
62946;BME280;52164;52.212;-1.010;2022-10-31T01:49:46;100600.91;;;12.29;82.47
62946;BME280;52164;52.212;-1.010;2022-10-31T01:52:36;100602.49;;;12.32;82.64
62946;BME280;52164;52.212;-1.010;2022-10-31T01:55:09;100591.23;;;12.32;82.42
62946;BME280;52164;52.212;-1.010;2022-10-31T01:57:37;100591.92;;;12.34;82.56
62946;BME280;52164;52.212;-1.010;2022-10-31T02:00:07;100592.27;;;12.36;82.60
62946;BME280;52164;52.212;-1.010;2022-10-31T02:02:33;100588.33;;;12.38;82.36
62946;BME280;52164;52.212;-1.010;2022-10-31T02:05:01;100591.90;;;12.39;82.39
62946;BME280;52164;52.212;-1.010;2022-10-31T02:07:36;100590.30;;;12.38;82.43
62946;BME280;52164;52.212;-1.010;2022-10-31T02:10:03;100593.17;;;12.36;82.29
62946;BME280;52164;52.212;-1.010;2022-10-31T02:12:30;100591.39;;;12.35;82.42
62946;BME280;52164;52.212;-1.010;2022-10-31T02:14:56;100591.92;;;12.34;82.42
62946;BME280;52164;52.212;-1.010;2022-10-31T02:17:22;100595.69;;;12.34;82.36
62946;BME280;52164;52.212;-1.010;2022-10-31T02:19:52;100594.07;;;12.34;82.41
62946;BME280;52164;52.212;-1.010;2022-10-31T02:22:27;100590.48;;;12.33;82.36
62946;BME280;52164;52.212;-1.010;2022-10-31T02:27:45;100589.10;;;12.29;82.49
62946;BME280;52164;52.212;-1.010;2022-10-31T02:30:20;100589.83;;;12.27;82.20
62946;BME280;52164;52.212;-1.010;2022-10-31T02:38:18;100595.23;;;12.18;82.29
62946;BME280;52164;52.212;-1.010;2022-10-31T02:41:27;100589.17;;;12.15;82.53
62946;BME280;52164;52.212;-1.010;2022-10-31T02:48:27;100582.77;;;12.11;82.60
62946;BME280;52164;52.212;-1.010;2022-10-31T02:49:07;100585.44;;;12.10;82.50
62946;BME280;52164;52.212;-1.010;2022-10-31T02:51:35;100587.42;;;12.08;82.49
62946;BME280;52164;52.212;-1.010;2022-10-31T02:54:01;100582.78;;;12.05;82.63
62946;BME280;52164;52.212;-1.010;2022-10-31T02:56:26;100578.67;;;12.02;82.65
62946;BME280;52164;52.212;-1.010;2022-10-31T02:58:56;100581.55;;;12.00;82.78
62946;BME280;52164;52.212;-1.010;2022-10-31T03:03:44;100580.15;;;11.97;82.71
62946;BME280;52164;52.212;-1.010;2022-10-31T03:05:32;100568.88;;;11.96;83.02
62946;BME280;52164;52.212;-1.010;2022-10-31T03:07:11;100566.90;;;11.95;82.88
62946;BME280;52164;52.212;-1.010;2022-10-31T03:09:46;100567.99;;;11.94;83.12
62946;BME280;52164;52.212;-1.010;2022-10-31T03:12:28;100566.92;;;11.94;83.00
62946;BME280;52164;52.212;-1.010;2022-10-31T03:17:30;100577.98;;;11.92;82.91
62946;BME280;52164;52.212;-1.010;2022-10-31T03:20:00;100577.08;;;11.91;83.18
62946;BME280;52164;52.212;-1.010;2022-10-31T03:22:29;100576.19;;;11.92;83.09
62946;BME280;52164;52.212;-1.010;2022-10-31T03:24:57;100573.33;;;11.92;83.13
62946;BME280;52164;52.212;-1.010;2022-10-31T03:27:25;100567.81;;;11.93;83.06
62946;BME280;52164;52.212;-1.010;2022-10-31T03:29:54;100557.23;;;11.92;83.25
62946;BME280;52164;52.212;-1.010;2022-10-31T03:32:25;100555.81;;;11.90;83.10
62946;BME280;52164;52.212;-1.010;2022-10-31T03:34:55;100552.60;;;11.89;82.93
62946;BME280;52164;52.212;-1.010;2022-10-31T03:37:24;100548.48;;;11.89;83.27
62946;BME280;52164;52.212;-1.010;2022-10-31T03:39:51;100546.34;;;11.88;83.12
62946;BME280;52164;52.212;-1.010;2022-10-31T03:42:22;100553.52;;;11.86;83.14
62946;BME280;52164;52.212;-1.010;2022-10-31T03:44:55;100558.89;;;11.84;83.14
62946;BME280;52164;52.212;-1.010;2022-10-31T03:47:23;100555.14;;;11.81;83.14
62946;BME280;52164;52.212;-1.010;2022-10-31T03:49:49;100556.77;;;11.79;83.09
62946;BME280;52164;52.212;-1.010;2022-10-31T03:52:28;100560.16;;;11.79;83.05
62946;BME280;52164;52.212;-1.010;2022-10-31T03:54:57;100557.66;;;11.78;83.10
62946;BME280;52164;52.212;-1.010;2022-10-31T03:58:32;100555.16;;;11.76;82.84
62946;BME280;52164;52.212;-1.010;2022-10-31T04:00:12;100553.73;;;11.74;83.02
62946;BME280;52164;52.212;-1.010;2022-10-31T04:02:42;100559.29;;;11.73;83.02
62946;BME280;52164;52.212;-1.010;2022-10-31T04:05:12;100560.54;;;11.73;83.23
62946;BME280;52164;52.212;-1.010;2022-10-31T04:07:42;100559.47;;;11.73;83.06
62946;BME280;52164;52.212;-1.010;2022-10-31T04:10:10;100564.83;;;11.71;83.22
62946;BME280;52164;52.212;-1.010;2022-10-31T04:12:38;100571.28;;;11.70;83.10
62946;BME280;52164;52.212;-1.010;2022-10-31T04:15:06;100568.42;;;11.67;83.16
62946;BME280;52164;52.212;-1.010;2022-10-31T04:17:35;100565.92;;;11.67;83.28
62946;BME280;52164;52.212;-1.010;2022-10-31T04:20:02;100565.75;;;11.66;83.32
62946;BME280;52164;52.212;-1.010;2022-10-31T04:22:28;100560.40;;;11.66;83.04
62946;BME280;52164;52.212;-1.010;2022-10-31T04:24:54;100547.34;;;11.65;82.96
62946;BME280;52164;52.212;-1.010;2022-10-31T04:27:19;100542.67;;;11.65;83.11
62946;BME280;52164;52.212;-1.010;2022-10-31T04:29:45;100543.59;;;11.63;83.28
62946;BME280;52164;52.212;-1.010;2022-10-31T04:32:10;100546.98;;;11.63;83.34
62946;BME280;52164;52.212;-1.010;2022-10-31T04:34:35;100548.05;;;11.63;83.18
62946;BME280;52164;52.212;-1.010;2022-10-31T04:37:01;100551.81;;;11.63;83.18
62946;BME280;52164;52.212;-1.010;2022-10-31T04:39:26;100548.77;;;11.64;83.34
62946;BME280;52164;52.212;-1.010;2022-10-31T04:41:51;100549.30;;;11.65;83.36
62946;BME280;52164;52.212;-1.010;2022-10-31T04:44:17;100552.35;;;11.65;83.32
62946;BME280;52164;52.212;-1.010;2022-10-31T04:46:42;100549.84;;;11.65;83.30
62946;BME280;52164;52.212;-1.010;2022-10-31T04:49:10;100549.48;;;11.66;83.19
62946;BME280;52164;52.212;-1.010;2022-10-31T04:51:35;100548.95;;;11.67;83.34
62946;BME280;52164;52.212;-1.010;2022-10-31T04:54:00;100545.19;;;11.67;83.11
62946;BME280;52164;52.212;-1.010;2022-10-31T04:56:26;100539.29;;;11.65;83.29
62946;BME280;52164;52.212;-1.010;2022-10-31T04:58:51;100539.65;;;11.64;83.33
62946;BME280;52164;52.212;-1.010;2022-10-31T05:01:16;100535.02;;;11.62;83.26
62946;BME280;52164;52.212;-1.010;2022-10-31T05:03:42;100533.23;;;11.60;83.30
62946;BME280;52164;52.212;-1.010;2022-10-31T05:06:08;100531.64;;;11.56;83.12
62946;BME280;52164;52.212;-1.010;2022-10-31T05:08:34;100532.91;;;11.53;83.29
62946;BME280;52164;52.212;-1.010;2022-10-31T05:11:00;100530.05;;;11.50;83.38
62946;BME280;52164;52.212;-1.010;2022-10-31T05:13:27;100526.66;;;11.48;83.38
62946;BME280;52164;52.212;-1.010;2022-10-31T05:15:52;100519.34;;;11.47;83.62
62946;BME280;52164;52.212;-1.010;2022-10-31T05:18:17;100522.20;;;11.48;83.79
62946;BME280;52164;52.212;-1.010;2022-10-31T05:20:43;100525.96;;;11.48;83.76
62946;BME280;52164;52.212;-1.010;2022-10-31T05:23:08;100525.23;;;11.49;83.72
62946;BME280;52164;52.212;-1.010;2022-10-31T05:25:34;100529.52;;;11.49;83.66
62946;BME280;52164;52.212;-1.010;2022-10-31T05:27:59;100528.97;;;11.51;83.89
62946;BME280;52164;52.212;-1.010;2022-10-31T05:30:28;100522.73;;;11.52;83.74
62946;BME280;52164;52.212;-1.010;2022-10-31T05:32:53;100521.46;;;11.52;83.86
62946;BME280;52164;52.212;-1.010;2022-10-31T05:35:23;100517.00;;;11.52;83.79
62946;BME280;52164;52.212;-1.010;2022-10-31T05:37:49;100515.02;;;11.52;83.74
62946;BME280;52164;52.212;-1.010;2022-10-31T05:40:15;100510.04;;;11.50;83.74
62946;BME280;52164;52.212;-1.010;2022-10-31T05:42:43;100509.86;;;11.50;83.79
62946;BME280;52164;52.212;-1.010;2022-10-31T05:45:10;100513.80;;;11.49;83.90
62946;BME280;52164;52.212;-1.010;2022-10-31T05:47:36;100513.80;;;11.50;83.75
62946;BME280;52164;52.212;-1.010;2022-10-31T05:50:02;100515.58;;;11.48;83.79
62946;BME280;52164;52.212;-1.010;2022-10-31T05:52:28;100515.59;;;11.47;83.99
62946;BME280;52164;52.212;-1.010;2022-10-31T05:54:53;100513.80;;;11.47;84.17
62946;BME280;52164;52.212;-1.010;2022-10-31T05:57:19;100512.02;;;11.48;84.13
62946;BME280;52164;52.212;-1.010;2022-10-31T05:59:44;100507.35;;;11.49;84.28
62946;BME280;52164;52.212;-1.010;2022-10-31T06:02:10;100506.64;;;11.49;84.22
62946;BME280;52164;52.212;-1.010;2022-10-31T06:04:35;100505.04;;;11.50;84.45
62946;BME280;52164;52.212;-1.010;2022-10-31T06:07:01;100493.95;;;11.51;84.23
62946;BME280;52164;52.212;-1.010;2022-10-31T06:09:26;100496.27;;;11.52;84.25
62946;BME280;52164;52.212;-1.010;2022-10-31T06:11:52;100491.80;;;11.51;84.22
62946;BME280;52164;52.212;-1.010;2022-10-31T06:14:17;100483.05;;;11.53;84.41
62946;BME280;52164;52.212;-1.010;2022-10-31T06:16:42;100484.12;;;11.52;84.33
62946;BME280;52164;52.212;-1.010;2022-10-31T06:19:09;100488.77;;;11.52;84.58
62946;BME280;52164;52.212;-1.010;2022-10-31T06:21:34;100484.66;;;11.54;84.52
62946;BME280;52164;52.212;-1.010;2022-10-31T06:24:00;100481.08;;;11.54;84.67
62946;BME280;52164;52.212;-1.010;2022-10-31T06:26:25;100477.14;;;11.55;84.66
62946;BME280;52164;52.212;-1.010;2022-10-31T06:28:50;100476.05;;;11.56;84.71
62946;BME280;52164;52.212;-1.010;2022-10-31T06:31:16;100471.23;;;11.56;84.50
62946;BME280;52164;52.212;-1.010;2022-10-31T06:33:41;100472.66;;;11.56;84.59
62946;BME280;52164;52.212;-1.010;2022-10-31T06:36:08;100474.98;;;11.55;84.86
62946;BME280;52164;52.212;-1.010;2022-10-31T06:38:33;100473.56;;;11.55;84.79
62946;BME280;52164;52.212;-1.010;2022-10-31T06:41:02;100474.45;;;11.55;84.88
62946;BME280;52164;52.212;-1.010;2022-10-31T06:43:29;100478.03;;;11.56;84.71
62946;BME280;52164;52.212;-1.010;2022-10-31T06:45:55;100476.41;;;11.56;84.75
62946;BME280;52164;52.212;-1.010;2022-10-31T06:48:20;100471.05;;;11.57;84.87
62946;BME280;52164;52.212;-1.010;2022-10-31T06:50:46;100468.00;;;11.57;84.85
62946;BME280;52164;52.212;-1.010;2022-10-31T06:53:11;100468.35;;;11.59;84.78
62946;BME280;52164;52.212;-1.010;2022-10-31T06:55:39;100460.13;;;11.61;85.11
62946;BME280;52164;52.212;-1.010;2022-10-31T06:58:05;100462.61;;;11.63;85.14
62946;BME280;52164;52.212;-1.010;2022-10-31T07:00:31;100464.75;;;11.66;85.13
62946;BME280;52164;52.212;-1.010;2022-10-31T07:03:00;100462.60;;;11.67;84.92
62946;BME280;52164;52.212;-1.010;2022-10-31T07:05:27;100466.88;;;11.69;85.04
62946;BME280;52164;52.212;-1.010;2022-10-31T07:07:55;100460.42;;;11.70;85.12
62946;BME280;52164;52.212;-1.010;2022-10-31T07:10:22;100460.05;;;11.72;85.02
62946;BME280;52164;52.212;-1.010;2022-10-31T07:12:48;100460.59;;;11.73;84.92
62946;BME280;52164;52.212;-1.010;2022-10-31T07:15:13;100457.37;;;11.74;85.01
62946;BME280;52164;52.212;-1.010;2022-10-31T07:17:39;100456.47;;;11.75;85.11
62946;BME280;52164;52.212;-1.010;2022-10-31T07:20:05;100455.57;;;11.76;84.93
62946;BME280;52164;52.212;-1.010;2022-10-31T07:22:33;100457.53;;;11.78;84.97
62946;BME280;52164;52.212;-1.010;2022-10-31T07:24:59;100456.79;;;11.80;84.92
62946;BME280;52164;52.212;-1.010;2022-10-31T07:27:24;100463.41;;;11.82;84.73
62946;BME280;52164;52.212;-1.010;2022-10-31T07:29:49;100463.75;;;11.84;84.66
62946;BME280;52164;52.212;-1.010;2022-10-31T07:32:15;100466.61;;;11.86;84.56
62946;BME280;52164;52.212;-1.010;2022-10-31T07:34:40;100464.98;;;11.87;84.74
62946;BME280;52164;52.212;-1.010;2022-10-31T07:37:05;100470.88;;;11.89;84.66
62946;BME280;52164;52.212;-1.010;2022-10-31T07:39:31;100478.02;;;11.92;84.43
62946;BME280;52164;52.212;-1.010;2022-10-31T07:41:58;100479.81;;;11.95;84.49
62946;BME280;52164;52.212;-1.010;2022-10-31T07:44:24;100480.15;;;11.98;84.32
62946;BME280;52164;52.212;-1.010;2022-10-31T07:46:49;100477.63;;;12.01;84.28
62946;BME280;52164;52.212;-1.010;2022-10-31T07:49:14;100478.52;;;12.03;84.23
62946;BME280;52164;52.212;-1.010;2022-10-31T07:51:40;100474.73;;;12.04;84.17
62946;BME280;52164;52.212;-1.010;2022-10-31T07:54:05;100474.55;;;12.06;84.14
62946;BME280;52164;52.212;-1.010;2022-10-31T07:56:31;100470.61;;;12.08;84.27
62946;BME280;52164;52.212;-1.010;2022-10-31T07:58:56;100468.10;;;12.09;84.17
62946;BME280;52164;52.212;-1.010;2022-10-31T08:01:21;100470.23;;;12.11;84.17
62946;BME280;52164;52.212;-1.010;2022-10-31T08:03:47;100475.21;;;12.14;84.14
62946;BME280;52164;52.212;-1.010;2022-10-31T08:06:12;100477.33;;;12.18;84.35
62946;BME280;52164;52.212;-1.010;2022-10-31T08:08:38;100486.44;;;12.23;84.23
62946;BME280;52164;52.212;-1.010;2022-10-31T08:11:04;100486.21;;;12.27;84.23
62946;BME280;52164;52.212;-1.010;2022-10-31T08:13:29;100480.45;;;12.33;84.13
62946;BME280;52164;52.212;-1.010;2022-10-31T08:15:54;100483.45;;;12.38;84.01
62946;BME280;52164;52.212;-1.010;2022-10-31T08:18:20;100479.66;;;12.42;84.10
62946;BME280;52164;52.212;-1.010;2022-10-31T08:20:49;100475.14;;;12.46;84.17
62946;BME280;52164;52.212;-1.010;2022-10-31T08:23:14;100473.52;;;12.50;84.29
62946;BME280;52164;52.212;-1.010;2022-10-31T08:25:41;100474.54;;;12.55;84.12
62946;BME280;52164;52.212;-1.010;2022-10-31T08:28:09;100474.50;;;12.59;84.14
62946;BME280;52164;52.212;-1.010;2022-10-31T08:30:36;100471.63;;;12.60;83.97
62946;BME280;52164;52.212;-1.010;2022-10-31T08:33:04;100471.08;;;12.62;84.12
62946;BME280;52164;52.212;-1.010;2022-10-31T08:35:33;100469.41;;;12.68;84.02
62946;BME280;52164;52.212;-1.010;2022-10-31T08:37:59;100467.21;;;12.73;83.92
62946;BME280;52164;52.212;-1.010;2022-10-31T08:40:28;100468.79;;;12.77;84.03
62946;BME280;52164;52.212;-1.010;2022-10-31T08:42:59;100463.71;;;12.82;83.89
62946;BME280;52164;52.212;-1.010;2022-10-31T08:45:25;100468.31;;;12.89;83.86
62946;BME280;52164;52.212;-1.010;2022-10-31T08:47:51;100469.85;;;12.95;83.91
62946;BME280;52164;52.212;-1.010;2022-10-31T08:50:16;100471.19;;;13.03;83.74
62946;BME280;52164;52.212;-1.010;2022-10-31T08:52:42;100467.04;;;13.08;83.78
62946;BME280;52164;52.212;-1.010;2022-10-31T08:55:07;100473.91;;;13.17;83.52
62946;BME280;52164;52.212;-1.010;2022-10-31T08:57:33;100473.65;;;13.26;83.22
62946;BME280;52164;52.212;-1.010;2022-10-31T08:59:58;100473.05;;;13.30;82.93
62946;BME280;52164;52.212;-1.010;2022-10-31T09:02:24;100471.41;;;13.34;83.07
62946;BME280;52164;52.212;-1.010;2022-10-31T09:04:49;100467.98;;;13.37;82.83
62946;BME280;52164;52.212;-1.010;2022-10-31T09:07:15;100468.84;;;13.40;83.01
62946;BME280;52164;52.212;-1.010;2022-10-31T09:09:43;100467.54;;;13.44;82.86
62946;BME280;52164;52.212;-1.010;2022-10-31T09:12:09;100470.35;;;13.49;82.65
62946;BME280;52164;52.212;-1.010;2022-10-31T09:14:38;100461.11;;;13.55;82.76
62946;BME280;52164;52.212;-1.010;2022-10-31T09:17:03;100459.61;;;13.61;82.59
62946;BME280;52164;52.212;-1.010;2022-10-31T09:19:29;100453.41;;;13.69;82.39
62946;BME280;52164;52.212;-1.010;2022-10-31T09:21:55;100454.73;;;13.77;82.38
62946;BME280;52164;52.212;-1.010;2022-10-31T09:24:21;100452.10;;;13.86;82.01
62946;BME280;52164;52.212;-1.010;2022-10-31T09:26:46;100446.08;;;13.93;81.93
62946;BME280;52164;52.212;-1.010;2022-10-31T09:29:11;100437.39;;;13.98;81.71
62946;BME280;52164;52.212;-1.010;2022-10-31T09:31:37;100433.36;;;14.03;81.63
62946;BME280;52164;52.212;-1.010;2022-10-31T09:34:02;100432.59;;;14.06;81.40
62946;BME280;52164;52.212;-1.010;2022-10-31T09:36:28;100435.87;;;14.15;81.15
62946;BME280;52164;52.212;-1.010;2022-10-31T09:38:53;100430.92;;;14.21;81.02
62946;BME280;52164;52.212;-1.010;2022-10-31T09:43:39;100425.25;;;14.28;80.75
62946;BME280;52164;52.212;-1.010;2022-10-31T09:44:25;100422.80;;;14.35;80.76
62946;BME280;52164;52.212;-1.010;2022-10-31T09:47:03;100418.37;;;14.41;80.56
62946;BME280;52164;52.212;-1.010;2022-10-31T09:52:22;100413.39;;;14.50;80.38
62946;BME280;52164;52.212;-1.010;2022-10-31T09:54:52;100404.02;;;14.51;80.43
62946;BME280;52164;52.212;-1.010;2022-10-31T09:57:25;100406.88;;;14.52;80.32
62946;BME280;52164;52.212;-1.010;2022-10-31T09:59:52;100408.88;;;14.51;80.15
62946;BME280;52164;52.212;-1.010;2022-10-31T10:02:22;100405.81;;;14.52;80.01
62946;BME280;52164;52.212;-1.010;2022-10-31T10:09:47;100402.48;;;14.78;79.61
62946;BME280;52164;52.212;-1.010;2022-10-31T10:12:41;100398.39;;;14.86;79.13
62946;BME280;52164;52.212;-1.010;2022-10-31T10:15:34;100399.31;;;14.93;78.97
62946;BME280;52164;52.212;-1.010;2022-10-31T10:18:20;100392.98;;;15.05;78.83
62946;BME280;52164;52.212;-1.010;2022-10-31T10:20:59;100387.95;;;15.13;78.46
62946;BME280;52164;52.212;-1.010;2022-10-31T10:23:35;100385.18;;;15.17;78.45
62946;BME280;52164;52.212;-1.010;2022-10-31T10:26:15;100386.07;;;15.26;78.48
62946;BME280;52164;52.212;-1.010;2022-10-31T10:28:45;100382.29;;;15.43;78.27
62946;BME280;52164;52.212;-1.010;2022-10-31T10:31:22;100380.45;;;15.52;77.85
62946;BME280;52164;52.212;-1.010;2022-10-31T10:34:15;100384.88;;;15.63;77.44
62946;BME280;52164;52.212;-1.010;2022-10-31T10:36:45;100383.71;;;15.76;76.96
62946;BME280;52164;52.212;-1.010;2022-10-31T10:39:33;100375.91;;;15.87;76.61
62946;BME280;52164;52.212;-1.010;2022-10-31T10:42:01;100371.75;;;15.95;76.28
62946;BME280;52164;52.212;-1.010;2022-10-31T10:44:52;100373.34;;;15.96;75.80
62946;BME280;52164;52.212;-1.010;2022-10-31T10:47:53;100373.48;;;15.98;75.79
62946;BME280;52164;52.212;-1.010;2022-10-31T10:50:35;100369.28;;;16.00;75.59
62946;BME280;52164;52.212;-1.010;2022-10-31T10:58:07;100356.61;;;16.03;74.86
62946;BME280;52164;52.212;-1.010;2022-10-31T11:00:38;100354.30;;;16.02;74.88
62946;BME280;52164;52.212;-1.010;2022-10-31T11:03:05;100351.06;;;15.95;73.95
62946;BME280;52164;52.212;-1.010;2022-10-31T11:05:42;100353.52;;;15.90;73.99
62946;BME280;52164;52.212;-1.010;2022-10-31T11:08:10;100351.40;;;15.95;73.96
62946;BME280;52164;52.212;-1.010;2022-10-31T11:10:36;100350.65;;;16.04;73.76
62946;BME280;52164;52.212;-1.010;2022-10-31T11:13:17;100347.27;;;16.10;73.64
62946;BME280;52164;52.212;-1.010;2022-10-31T11:16:07;100340.77;;;16.17;73.55
62946;BME280;52164;52.212;-1.010;2022-10-31T11:18:37;100331.19;;;16.19;73.44
62946;BME280;52164;52.212;-1.010;2022-10-31T11:21:04;100325.02;;;16.21;73.47
62946;BME280;52164;52.212;-1.010;2022-10-31T11:23:31;100325.30;;;16.24;73.36
62946;BME280;52164;52.212;-1.010;2022-10-31T11:26:01;100321.89;;;16.30;73.26
62946;BME280;52164;52.212;-1.010;2022-10-31T11:28:28;100313.93;;;16.31;72.99
62946;BME280;52164;52.212;-1.010;2022-10-31T11:31:00;100316.41;;;16.27;72.64
62946;BME280;52164;52.212;-1.010;2022-10-31T11:33:31;100311.72;;;16.33;72.39
62946;BME280;52164;52.212;-1.010;2022-10-31T11:35:59;100305.98;;;16.40;72.67
62946;BME280;52164;52.212;-1.010;2022-10-31T11:38:34;100295.31;;;16.41;72.56
62946;BME280;52164;52.212;-1.010;2022-10-31T11:41:11;100292.30;;;16.45;72.14
62946;BME280;52164;52.212;-1.010;2022-10-31T11:43:38;100292.66;;;16.52;71.64
62946;BME280;52164;52.212;-1.010;2022-10-31T11:46:11;100292.23;;;16.54;71.21
62946;BME280;52164;52.212;-1.010;2022-10-31T11:48:47;100293.24;;;16.51;70.76
62946;BME280;52164;52.212;-1.010;2022-10-31T11:51:33;100288.05;;;16.49;70.77
62946;BME280;52164;52.212;-1.010;2022-10-31T11:54:02;100284.20;;;16.46;70.64
62946;BME280;52164;52.212;-1.010;2022-10-31T11:56:43;100278.14;;;16.43;70.80
62946;BME280;52164;52.212;-1.010;2022-10-31T11:59:30;100276.89;;;16.43;70.95
62946;BME280;52164;52.212;-1.010;2022-10-31T12:01:57;100274.05;;;16.47;70.82
62946;BME280;52164;52.212;-1.010;2022-10-31T12:04:44;100264.53;;;16.53;70.48
62946;BME280;52164;52.212;-1.010;2022-10-31T12:07:17;100258.28;;;16.63;70.42
62946;BME280;52164;52.212;-1.010;2022-10-31T12:09:42;100250.63;;;16.73;70.17
62946;BME280;52164;52.212;-1.010;2022-10-31T12:12:11;100244.81;;;16.88;69.75
62946;BME280;52164;52.212;-1.010;2022-10-31T12:20:37;100221.07;;;17.15;68.72
62946;BME280;52164;52.212;-1.010;2022-10-31T12:20:47;100230.21;;;17.05;69.13
62946;BME280;52164;52.212;-1.010;2022-10-31T12:23:19;100221.25;;;17.21;68.54
62946;BME280;52164;52.212;-1.010;2022-10-31T12:31:38;100223.09;;;17.31;67.79
62946;BME280;52164;52.212;-1.010;2022-10-31T12:34:43;100215.30;;;17.21;67.71
62946;BME280;52164;52.212;-1.010;2022-10-31T12:46:07;100186.38;;;17.28;67.24
62946;BME280;52164;52.212;-1.010;2022-10-31T12:49:15;100172.46;;;17.35;66.78
62946;BME280;52164;52.212;-1.010;2022-10-31T12:51:35;100169.23;;;17.35;66.96
62946;BME280;52164;52.212;-1.010;2022-10-31T12:54:40;100163.63;;;17.35;67.00
62946;BME280;52164;52.212;-1.010;2022-10-31T12:58:09;100160.89;;;17.36;66.93
62946;BME280;52164;52.212;-1.010;2022-10-31T12:59:50;100162.10;;;17.42;67.23
62946;BME280;52164;52.212;-1.010;2022-10-31T13:02:39;100160.10;;;17.49;66.92
62946;BME280;52164;52.212;-1.010;2022-10-31T13:05:36;100145.05;;;17.51;66.75
62946;BME280;52164;52.212;-1.010;2022-10-31T13:08:22;100132.73;;;17.47;66.02
62946;BME280;52164;52.212;-1.010;2022-10-31T13:10:59;100118.42;;;17.38;65.97
62946;BME280;52164;52.212;-1.010;2022-10-31T13:13:35;100114.38;;;17.30;66.14
62946;BME280;52164;52.212;-1.010;2022-10-31T13:16:14;100111.00;;;17.17;66.12
62946;BME280;52164;52.212;-1.010;2022-10-31T13:18:46;100105.80;;;17.01;66.23
62946;BME280;52164;52.212;-1.010;2022-10-31T13:21:18;100097.54;;;16.88;66.47
62946;BME280;52164;52.212;-1.010;2022-10-31T13:23:49;100092.58;;;16.79;66.60
62946;BME280;52164;52.212;-1.010;2022-10-31T13:26:53;100091.74;;;16.71;66.67
62946;BME280;52164;52.212;-1.010;2022-10-31T13:31:42;100082.15;;;16.61;66.75
62946;BME280;52164;52.212;-1.010;2022-10-31T13:34:18;100075.69;;;16.61;67.02
62946;BME280;52164;52.212;-1.010;2022-10-31T13:36:57;100072.95;;;16.61;67.10
62946;BME280;52164;52.212;-1.010;2022-10-31T13:42:17;100056.55;;;16.68;67.18
62946;BME280;52164;52.212;-1.010;2022-10-31T13:44:44;100050.99;;;16.67;66.50
62946;BME280;52164;52.212;-1.010;2022-10-31T13:47:29;100046.36;;;16.65;66.44